Date,TemperatureHighF,TemperatureAvgF,TemperatureLowF,DewpointHighF,DewpointAvgF,DewpointLowF,HumidityHigh,HumidityAvg,HumidityLow,PressureMaxIn,PressureMinIn,WindSpeedMaxMPH,WindSpeedAvgMPH,GustSpeedMaxMPH,PrecipitationSumIn
2013-3-1,42.1,37.7,31.4,32.1,28.6,23.3,79,70,55,29.91,29.73,14,2,17,0.00
2013-3-2,34.5,31.1,28.7,24.2,22.5,20.8,75,70,61,29.91,29.84,15,3,15,0.00
2013-3-3,38.3,31.6,28.0,22.6,20.6,18.3,78,64,48,29.94,29.82,16,4,23,0.00
2013-3-4,39.7,32.2,26.0,21.4,18.1,14.8,68,56,43,30.06,29.93,20,4,21,0.00
2013-3-5,47.0,37.7,28.8,26.9,20.7,12.9,69,52,28,30.09,29.82,11,2,16,0.00
2013-3-6,38.7,35.2,32.0,34.1,32.1,28.8,97,89,71,30.03,29.68,27,5,27,0.66
2013-3-7,45.6,37.8,28.7,30.6,28.7,26.1,92,71,52,30.17,30.03,17,4,22,0.00
2013-3-8,46.6,39.6,34.1,30.5,28.2,25.2,80,64,51,30.30,30.16,23,6,29,0.00
2013-3-9,57.6,43.1,28.8,31.3,26.3,23.1,80,54,29,30.38,30.26,8,1,0,0.00
2013-3-10,61.1,48.4,32.4,31.6,26.1,21.0,77,45,25,30.32,30.19,18,3,19,0.00
2013-3-11,57.6,49.7,41.1,49.1,41.8,22.8,93,75,37,30.22,29.89,16,4,23,0.00
2013-3-12,57.2,49.8,40.1,52.7,43.2,29.7,97,79,62,29.97,29.74,22,5,26,1.01
2013-3-13,47.4,39.1,31.5,31.3,25.6,19.5,74,59,36,30.07,29.91,11,2,17,0.00
2013-3-14,41.5,35.1,29.8,20.5,18.4,16.4,64,51,37,30.14,30.03,23,4,24,0.00
2013-3-15,55.9,43.5,30.2,35.9,26.2,19.8,68,51,36,30.10,29.78,9,1,16,0.00
2013-3-16,47.4,42.4,35.3,37.7,34.7,32.3,92,74,58,29.87,29.66,12,2,17,0.00
2013-3-17,38.8,36.8,35.0,30.5,25.4,23.0,77,63,54,30.27,30.14,9,3,15,0.00
2013-3-18,35.5,32.8,29.6,31.9,27.9,22.0,97,83,60,30.32,29.90,10,2,15,0.13
2013-3-19,56.5,41.8,32.5,40.6,28.9,12.4,99,68,22,29.92,29.73,10,2,17,0.22
2013-3-20,49.9,40.7,32.4,27.2,18.3,15.2,70,41,26,29.99,29.77,13,2,20,0.00
2013-3-21,35.4,30.6,26.4,25.6,15.0,9.3,71,52,38,29.90,29.78,16,4,20,0.00
2013-3-22,42.3,33.6,25.0,21.3,18.3,12.1,65,54,41,30.01,29.89,11,2,18,0.00
2013-3-23,50.2,37.9,26.9,27.1,22.8,19.2,75,56,35,30.05,29.93,14,2,16,0.00
2013-3-24,40.2,34.8,28.1,30.8,24.2,19.8,88,66,50,30.01,29.66,9,1,0,0.00
2013-3-25,37.0,33.7,31.4,35.1,32.0,30.3,97,94,88,29.72,29.54,4,0,0,0.42
2013-3-26,48.6,38.9,31.2,34.0,30.9,27.5,98,75,45,30.00,29.72,13,2,22,0.01
2013-3-27,47.5,40.8,35.6,32.6,28.9,25.5,75,63,46,30.13,29.99,20,3,20,0.00
2013-3-28,46.8,40.7,34.7,33.1,30.4,27.9,77,67,50,30.24,30.09,14,2,21,0.00
2013-3-29,54.6,44.9,36.6,35.4,30.6,26.1,77,59,36,30.26,30.15,15,2,15,0.00
2013-3-30,57.6,45.8,31.2,34.8,26.5,19.7,85,51,25,30.24,30.10,8,1,0,0.00
2013-3-31,47.8,44.8,42.2,46.4,37.8,24.1,98,78,41,30.11,29.75,9,1,13,0.16